Time;durP1;ratioP1;P1;durP2;ratioP2;P2;SDS_P1;SDS_P2;PMS_P1;PMS_P2;Temp;Humidity;BMP_temperature;BMP_pressure;BME280_temperature;BME280_humidity;BME280_pressure;Samples;Min_cycle;Max_cycle;Signal;HPM_P1;HPM_P2
2021/11/22 00:02:10;;;;;;;0.40;0.30;;;4.20;99.90;;;;;;4990951;28;20391;-71
2021/11/22 00:04:36;;;;;;;0.40;0.40;;;4.30;99.90;;;;;;4972473;28;20414;-69
2021/11/22 00:07:02;;;;;;;1.40;1.20;;;4.00;99.90;;;;;;4972930;28;20397;-70
2021/11/22 00:09:28;;;;;;;0.40;0.20;;;4.00;99.90;;;;;;4990082;28;20478;-69
2021/11/22 00:11:54;;;;;;;0.40;0.20;;;4.00;99.90;;;;;;4990224;28;20684;-68
2021/11/22 00:14:20;;;;;;;0.40;0.40;;;4.10;99.90;;;;;;4991097;28;20382;-68
2021/11/22 00:16:46;;;;;;;0.40;0.30;;;4.00;99.90;;;;;;4990190;28;20397;-70
2021/11/22 00:19:12;;;;;;;0.70;0.70;;;4.30;99.90;;;;;;4990135;28;20386;-71
2021/11/22 00:21:37;;;;;;;0.40;0.20;;;4.30;99.90;;;;;;4990374;28;20481;-71
2021/11/22 00:24:03;;;;;;;0.40;0.30;;;4.30;99.90;;;;;;4990732;28;20875;-70
2021/11/22 00:26:29;;;;;;;0.40;0.20;;;4.30;99.90;;;;;;4975550;28;20399;-71
2021/11/22 00:28:55;;;;;;;0.80;0.60;;;4.30;99.90;;;;;;4993058;28;20402;-69
2021/11/22 00:31:21;;;;;;;0.90;0.50;;;4.30;99.90;;;;;;4993832;28;20398;-68
2021/11/22 00:33:48;;;;;;;0.40;0.30;;;4.20;99.90;;;;;;4993392;28;20474;-69
2021/11/22 00:36:14;;;;;;;0.40;0.20;;;4.20;99.90;;;;;;4976307;28;20397;-69
2021/11/22 00:38:40;;;;;;;0.40;0.20;;;4.20;99.90;;;;;;4993805;28;20419;-70
2021/11/22 00:41:07;;;;;;;0.90;0.80;;;4.20;99.90;;;;;;4993511;28;20558;-71
2021/11/22 00:43:32;;;;;;;0.40;0.20;;;4.30;99.90;;;;;;4993854;28;20508;-71
2021/11/22 00:45:58;;;;;;;0.40;0.20;;;4.20;99.90;;;;;;4992998;28;20478;-71
2021/11/22 00:48:24;;;;;;;0.50;0.50;;;4.30;99.90;;;;;;4993612;28;20457;-69
2021/11/22 00:50:52;;;;;;;0.40;0.40;;;4.20;99.90;;;;;;5010578;28;20429;-69
2021/11/22 00:53:18;;;;;;;0.57;0.50;;;4.10;99.90;;;;;;5013132;28;20917;-71
2021/11/22 00:55:44;;;;;;;0.40;0.35;;;4.20;99.90;;;;;;5013009;28;20400;-70
2021/11/22 00:58:10;;;;;;;0.50;0.50;;;4.20;99.90;;;;;;5012264;28;20464;-70
2021/11/22 01:00:36;;;;;;;0.40;0.30;;;4.10;99.90;;;;;;5013231;28;20807;-71
2021/11/22 01:03:03;;;;;;;0.40;0.30;;;4.10;99.90;;;;;;5012426;28;20391;-71
2021/11/22 01:05:29;;;;;;;0.60;0.50;;;4.20;99.90;;;;;;5012928;28;20473;-71
2021/11/22 01:07:55;;;;;;;1.50;0.80;;;4.30;99.90;;;;;;5012776;28;20404;-71
2021/11/22 01:10:22;;;;;;;0.40;0.20;;;4.20;99.90;;;;;;5012420;28;20380;-71
2021/11/22 01:12:49;;;;;;;0.40;0.20;;;4.20;99.90;;;;;;5013246;28;20389;-70
2021/11/22 01:15:18;;;;;;;0.80;0.70;;;4.20;99.90;;;;;;4994408;28;20389;-71
2021/11/22 01:17:46;;;;;;;0.40;0.40;;;4.10;99.90;;;;;;5013113;28;20388;-71
2021/11/22 01:20:15;;;;;;;0.40;0.20;;;4.20;99.90;;;;;;5012174;28;20427;-71
2021/11/22 01:22:41;;;;;;;0.40;0.20;;;4.20;99.90;;;;;;5012918;28;20377;-71
2021/11/22 01:25:09;;;;;;;0.40;0.20;;;4.20;99.90;;;;;;5012755;28;20568;-71
2021/11/22 01:27:35;;;;;;;0.50;0.47;;;4.20;99.90;;;;;;4980604;28;20389;-70
2021/11/22 01:30:08;;;;;;;0.40;0.20;;;4.20;99.90;;;;;;5012820;28;20483;-69
2021/11/22 01:32:34;;;;;;;0.40;0.20;;;4.20;99.90;;;;;;4994685;28;20861;-70
2021/11/22 01:35:00;;;;;;;0.40;0.20;;;4.10;99.90;;;;;;5012415;28;20405;-70
2021/11/22 01:37:25;;;;;;;0.40;0.22;;;4.10;99.90;;;;;;5011203;28;20386;-70
2021/11/22 01:39:51;;;;;;;0.40;0.20;;;4.20;99.90;;;;;;5011570;28;20480;-70
2021/11/22 01:42:17;;;;;;;0.40;0.20;;;4.10;99.90;;;;;;5012153;28;20463;-70
2021/11/22 01:44:42;;;;;;;0.40;0.30;;;4.10;99.90;;;;;;5011776;28;20406;-69
2021/11/22 01:47:08;;;;;;;0.50;0.50;;;4.20;99.90;;;;;;5011984;28;20916;-70
2021/11/22 01:49:35;;;;;;;0.40;0.20;;;4.10;99.90;;;;;;5011096;28;20500;-70
2021/11/22 01:52:02;;;;;;;0.40;0.20;;;4.20;99.90;;;;;;5012061;28;20399;-70
2021/11/22 01:54:27;;;;;;;0.40;0.30;;;4.10;99.90;;;;;;5011684;28;20443;-70
2021/11/22 01:56:53;;;;;;;0.40;0.40;;;4.10;99.90;;;;;;5012418;28;20731;-70
2021/11/22 01:59:19;;;;;;;0.40;0.20;;;4.10;99.90;;;;;;4994434;28;20392;-70
2021/11/22 02:01:46;;;;;;;0.40;0.20;;;4.10;99.90;;;;;;5010867;28;20419;-70
2021/11/22 02:04:12;;;;;;;0.40;0.30;;;4.10;99.90;;;;;;5012363;28;20424;-70
2021/11/22 02:06:38;;;;;;;0.40;0.40;;;4.10;99.90;;;;;;5011248;28;20873;-70
2021/11/22 02:09:05;;;;;;;0.40;0.30;;;4.00;99.90;;;;;;5011756;28;20389;-70
2021/11/22 02:11:31;;;;;;;0.40;0.30;;;4.00;99.90;;;;;;5011647;28;20729;-70
2021/11/22 02:13:57;;;;;;;1.10;1.10;;;4.00;99.90;;;;;;5010856;28;20397;-70
2021/11/22 02:16:23;;;;;;;0.40;0.20;;;4.00;99.90;;;;;;5011753;28;20775;-70
2021/11/22 02:18:49;;;;;;;0.40;0.20;;;4.10;99.90;;;;;;5011216;28;20849;-70
2021/11/22 02:21:14;;;;;;;1.00;0.70;;;4.20;99.90;;;;;;4993720;28;20397;-70
2021/11/22 02:23:43;;;;;;;0.50;0.40;;;4.20;99.90;;;;;;5011661;28;20404;-70
2021/11/22 02:26:09;;;;;;;0.47;0.45;;;4.10;99.90;;;;;;5010641;28;20451;-69
2021/11/22 02:28:34;;;;;;;0.40;0.20;;;4.00;99.90;;;;;;5011612;28;20396;-70
2021/11/22 02:31:01;;;;;;;0.40;0.20;;;4.10;99.90;;;;;;5010869;28;20373;-70
2021/11/22 02:33:27;;;;;;;0.95;0.47;;;4.10;99.90;;;;;;5011418;28;20385;-70
2021/11/22 02:35:59;;;;;;;0.40;0.20;;;4.00;99.90;;;;;;5011559;28;20392;-70
2021/11/22 02:38:26;;;;;;;0.40;0.30;;;4.10;99.90;;;;;;5011527;28;20397;-70
2021/11/22 02:40:52;;;;;;;1.13;0.63;;;4.10;99.90;;;;;;5011336;28;20416;-70
2021/11/22 02:43:18;;;;;;;0.40;0.30;;;4.20;99.90;;;;;;5010369;28;20431;-70
2021/11/22 02:45:43;;;;;;;0.40;0.30;;;4.20;99.90;;;;;;5010533;28;20826;-70
2021/11/22 02:48:09;;;;;;;0.40;0.40;;;4.20;99.90;;;;;;5010349;28;20455;-70
2021/11/22 02:50:35;;;;;;;0.40;0.20;;;4.20;99.90;;;;;;4994758;28;20529;-70
2021/11/22 02:53:01;;;;;;;0.60;0.60;;;4.20;99.90;;;;;;4991520;28;20379;-69
2021/11/22 02:55:27;;;;;;;0.40;0.20;;;4.20;99.90;;;;;;4990831;28;20996;-70
2021/11/22 02:57:53;;;;;;;0.40;0.20;;;4.20;99.90;;;;;;4985757;28;20392;-69
2021/11/22 03:00:22;;;;;;;0.40;0.20;;;4.20;99.90;;;;;;4954158;28;20396;-70
2021/11/22 03:02:49;;;;;;;0.60;0.50;;;4.10;99.90;;;;;;4972280;28;20396;-69
2021/11/22 03:05:15;;;;;;;0.60;0.60;;;4.20;99.90;;;;;;4971117;28;20419;-71
2021/11/22 03:07:41;;;;;;;0.40;0.22;;;4.20;99.90;;;;;;4971794;28;20468;-69
2021/11/22 03:10:08;;;;;;;0.40;0.20;;;4.20;99.90;;;;;;4971646;28;20965;-70
2021/11/22 03:12:34;;;;;;;0.40;0.30;;;4.30;99.90;;;;;;4970634;28;20408;-70
2021/11/22 03:15:02;;;;;;;1.00;0.40;;;4.20;99.90;;;;;;4954981;28;20397;-70
2021/11/22 03:17:28;;;;;;;0.90;0.70;;;4.30;99.90;;;;;;4971135;28;20392;-70
2021/11/22 03:19:53;;;;;;;0.40;0.20;;;4.30;99.90;;;;;;4971452;28;20548;-69
2021/11/22 03:22:20;;;;;;;1.20;0.80;;;4.30;99.90;;;;;;4971325;28;20424;-69
2021/11/22 03:24:45;;;;;;;0.80;0.70;;;4.30;99.90;;;;;;4970828;28;20519;-69
2021/11/22 03:27:11;;;;;;;0.70;0.70;;;4.30;99.90;;;;;;4971449;28;20812;-69
2021/11/22 03:29:37;;;;;;;0.40;0.20;;;4.30;99.90;;;;;;4971323;28;20733;-70
2021/11/22 03:32:02;;;;;;;0.40;0.30;;;4.30;99.90;;;;;;4971656;28;20392;-69
2021/11/22 03:34:29;;;;;;;0.40;0.30;;;4.30;99.90;;;;;;4971710;28;20420;-70
2021/11/22 03:37:01;;;;;;;0.40;0.30;;;4.30;99.90;;;;;;4971481;28;20387;-70
2021/11/22 03:39:26;;;;;;;1.50;0.80;;;4.30;99.90;;;;;;4954712;28;20396;-70
2021/11/22 03:41:55;;;;;;;1.10;0.80;;;4.20;99.90;;;;;;4971158;28;20462;-70
2021/11/22 03:44:21;;;;;;;0.40;0.20;;;4.30;99.90;;;;;;4971506;28;20434;-70
2021/11/22 03:46:50;;;;;;;0.90;0.90;;;4.30;99.90;;;;;;4953915;28;20384;-70
2021/11/22 03:49:17;;;;;;;0.60;0.60;;;4.20;99.90;;;;;;4976383;28;20914;-70
2021/11/22 03:51:43;;;;;;;0.40;0.30;;;4.30;99.90;;;;;;4991361;28;20885;-70
2021/11/22 03:54:10;;;;;;;1.50;0.80;;;4.30;99.90;;;;;;4990647;28;20473;-71
2021/11/22 03:56:37;;;;;;;0.40;0.20;;;4.40;99.90;;;;;;4990639;28;20855;-70
2021/11/22 03:59:03;;;;;;;0.40;0.30;;;4.40;99.90;;;;;;5005313;28;20858;-70
2021/11/22 04:01:29;;;;;;;1.00;0.60;;;4.40;99.90;;;;;;5012896;28;20388;-70
2021/11/22 04:03:55;;;;;;;0.50;0.50;;;4.40;99.90;;;;;;5013290;28;20416;-72
2021/11/22 04:06:21;;;;;;;0.40;0.20;;;4.40;99.90;;;;;;4996642;28;20408;-70
2021/11/22 04:08:46;;;;;;;0.40;0.30;;;4.40;99.90;;;;;;5014385;28;20396;-70
2021/11/22 04:11:12;;;;;;;0.40;0.20;;;4.40;99.90;;;;;;5013588;28;20412;-70
2021/11/22 04:13:38;;;;;;;0.40;0.20;;;4.30;99.90;;;;;;5013604;28;20400;-70
2021/11/22 04:16:04;;;;;;;0.60;0.60;;;4.30;99.90;;;;;;5013409;28;20419;-70
2021/11/22 04:18:30;;;;;;;0.40;0.40;;;4.40;99.90;;;;;;5014184;28;20400;-70
2021/11/22 04:20:56;;;;;;;0.40;0.20;;;4.30;99.90;;;;;;5014310;28;20854;-70
2021/11/22 04:23:22;;;;;;;0.40;0.20;;;4.40;99.90;;;;;;4995500;28;20454;-70
2021/11/22 04:25:48;;;;;;;0.60;0.60;;;4.40;99.90;;;;;;5013828;28;20815;-70
2021/11/22 04:28:14;;;;;;;0.40;0.20;;;4.30;99.90;;;;;;5013050;28;20416;-71
2021/11/22 04:30:40;;;;;;;0.40;0.20;;;4.20;99.90;;;;;;4996249;28;20396;-70
2021/11/22 04:33:07;;;;;;;0.40;0.30;;;4.20;99.90;;;;;;5014149;28;20447;-70
2021/11/22 04:35:33;;;;;;;0.80;0.50;;;4.30;99.90;;;;;;5013016;28;20392;-70
2021/11/22 04:37:59;;;;;;;0.40;0.20;;;4.30;99.90;;;;;;5013720;28;20388;-70
2021/11/22 04:40:25;;;;;;;0.40;0.30;;;4.40;99.90;;;;;;5012863;28;20385;-69
2021/11/22 04:42:51;;;;;;;0.40;0.20;;;4.40;99.90;;;;;;5013185;28;20391;-69
2021/11/22 04:45:22;;;;;;;0.40;0.20;;;4.30;99.90;;;;;;5013191;28;20496;-71
2021/11/22 04:47:49;;;;;;;0.40;0.40;;;4.40;99.90;;;;;;5013448;28;20475;-69
2021/11/22 04:50:16;;;;;;;0.70;0.70;;;4.30;99.90;;;;;;5013108;28;20902;-69
2021/11/22 04:52:44;;;;;;;0.50;0.40;;;4.30;99.90;;;;;;5012129;28;20451;-69
2021/11/22 04:55:11;;;;;;;0.40;0.30;;;4.40;99.90;;;;;;5013378;28;20396;-69
2021/11/22 04:57:37;;;;;;;0.50;0.50;;;4.30;99.90;;;;;;5008829;28;20379;-69
2021/11/22 05:00:05;;;;;;;0.40;0.30;;;4.20;99.90;;;;;;4993293;28;20518;-69
2021/11/22 05:02:31;;;;;;;0.40;0.30;;;4.30;99.90;;;;;;4992629;28;20395;-71
2021/11/22 05:04:57;;;;;;;0.40;0.20;;;4.30;99.90;;;;;;4993541;28;20430;-69
2021/11/22 05:07:23;;;;;;;0.70;0.70;;;4.30;99.90;;;;;;4993675;28;20418;-69
2021/11/22 05:09:48;;;;;;;0.40;0.30;;;4.20;99.90;;;;;;4974975;28;20393;-69
2021/11/22 05:12:16;;;;;;;0.40;0.20;;;4.20;99.90;;;;;;4992344;28;20387;-69
2021/11/22 05:14:42;;;;;;;0.40;0.40;;;4.20;99.90;;;;;;4975145;28;20406;-69
2021/11/22 05:17:08;;;;;;;0.40;0.20;;;4.10;99.90;;;;;;4993233;28;20398;-70
2021/11/22 05:19:34;;;;;;;0.40;0.20;;;4.20;99.90;;;;;;4993542;28;20777;-69
2021/11/22 05:22:01;;;;;;;0.40;0.20;;;4.20;99.90;;;;;;4992899;28;20489;-69
2021/11/22 05:24:28;;;;;;;0.50;0.50;;;4.30;99.90;;;;;;4993372;28;20428;-69
2021/11/22 05:26:55;;;;;;;0.40;0.40;;;4.30;99.90;;;;;;4991984;28;20398;-69
2021/11/22 05:29:21;;;;;;;0.40;0.40;;;4.30;99.90;;;;;;4993139;28;20465;-69
2021/11/22 05:31:47;;;;;;;0.40;0.30;;;4.30;99.90;;;;;;4992580;28;20478;-71
2021/11/22 05:34:12;;;;;;;0.40;0.30;;;4.20;99.90;;;;;;4993295;28;20852;-69
2021/11/22 05:36:38;;;;;;;0.50;0.50;;;4.20;99.90;;;;;;4993202;28;20401;-69
2021/11/22 05:39:05;;;;;;;0.40;0.20;;;4.10;99.90;;;;;;4991906;28;20740;-69
2021/11/22 05:41:31;;;;;;;0.40;0.37;;;4.10;99.90;;;;;;4993227;28;20379;-69
2021/11/22 05:43:57;;;;;;;0.40;0.20;;;4.10;99.90;;;;;;4992143;28;20422;-69
2021/11/22 05:46:23;;;;;;;0.40;0.30;;;4.10;99.90;;;;;;4993092;28;20391;-69
2021/11/22 05:48:49;;;;;;;0.40;0.20;;;4.10;99.90;;;;;;4975048;28;20449;-70
2021/11/22 05:51:15;;;;;;;0.70;0.70;;;4.10;99.90;;;;;;4991690;28;20406;-69
2021/11/22 05:53:43;;;;;;;0.40;0.20;;;4.10;99.90;;;;;;4986884;28;20934;-69
2021/11/22 05:56:09;;;;;;;0.70;0.70;;;4.20;99.90;;;;;;4985559;28;20382;-69
2021/11/22 05:58:36;;;;;;;0.70;0.70;;;4.10;99.90;;;;;;4991065;28;20422;-69
2021/11/22 06:01:04;;;;;;;0.40;0.30;;;4.10;99.90;;;;;;4992853;28;20390;-71
2021/11/22 06:03:31;;;;;;;0.40;0.20;;;4.10;99.90;;;;;;4992072;28;20415;-69
2021/11/22 06:05:57;;;;;;;0.40;0.20;;;4.10;99.90;;;;;;4992645;28;20386;-69
2021/11/22 06:08:24;;;;;;;0.40;0.20;;;4.10;99.90;;;;;;4974326;28;20405;-70
2021/11/22 06:10:50;;;;;;;0.40;0.20;;;4.20;99.90;;;;;;4992146;28;20387;-70
2021/11/22 06:13:17;;;;;;;0.40;0.20;;;4.20;99.90;;;;;;4992155;28;20387;-69
2021/11/22 06:15:47;;;;;;;2.00;0.60;;;4.10;99.90;;;;;;4992853;28;20391;-69
2021/11/22 06:18:14;;;;;;;0.40;0.20;;;4.20;99.90;;;;;;4992289;28;20836;-70
2021/11/22 06:20:40;;;;;;;0.40;0.30;;;4.20;99.90;;;;;;4992716;28;20407;-69
2021/11/22 06:23:07;;;;;;;0.40;0.30;;;4.20;99.90;;;;;;4991822;28;20752;-69
2021/11/22 06:25:33;;;;;;;0.60;0.50;;;4.20;99.90;;;;;;4991282;28;20430;-71
2021/11/22 06:27:58;;;;;;;0.40;0.20;;;4.20;99.90;;;;;;4992535;28;20735;-70
2021/11/22 06:30:25;;;;;;;0.40;0.20;;;4.20;99.90;;;;;;4991422;28;20398;-71
2021/11/22 06:32:53;;;;;;;0.40;0.20;;;4.20;99.90;;;;;;4992031;28;20740;-70
2021/11/22 06:35:19;;;;;;;0.40;0.30;;;4.10;99.90;;;;;;4991980;28;20395;-70
2021/11/22 06:37:46;;;;;;;0.40;0.20;;;4.20;99.90;;;;;;4974241;28;20397;-71
2021/11/22 06:40:12;;;;;;;0.60;0.60;;;4.30;99.90;;;;;;4991760;28;20724;-71
2021/11/22 06:42:38;;;;;;;0.40;0.20;;;4.20;99.90;;;;;;4991508;28;20477;-71
2021/11/22 06:45:06;;;;;;;0.60;0.60;;;4.30;99.90;;;;;;4968335;28;20431;-71
2021/11/22 06:47:33;;;;;;;0.90;0.70;;;4.30;99.90;;;;;;4988084;28;20390;-71
2021/11/22 06:49:59;;;;;;;0.40;0.20;;;4.30;99.90;;;;;;4976851;28;20414;-71
2021/11/22 06:52:25;;;;;;;0.40;0.20;;;4.30;99.90;;;;;;4983140;28;20403;-71
2021/11/22 06:54:52;;;;;;;0.73;0.73;;;4.40;99.90;;;;;;4972353;28;20400;-71
2021/11/22 06:57:19;;;;;;;0.60;0.60;;;4.30;99.90;;;;;;4970287;28;20477;-71
2021/11/22 06:59:45;;;;;;;0.90;0.60;;;4.40;99.90;;;;;;4982677;28;20771;-71
2021/11/22 07:02:16;;;;;;;0.90;0.60;;;4.40;99.90;;;;;;4973532;28;20401;-71
2021/11/22 07:04:43;;;;;;;0.40;0.20;;;4.60;99.90;;;;;;4983119;28;20456;-71
2021/11/22 07:07:09;;;;;;;0.40;0.20;;;4.60;99.90;;;;;;4978210;28;20391;-71
2021/11/22 07:09:35;;;;;;;1.00;0.60;;;4.50;99.90;;;;;;4982793;28;20463;-71
2021/11/22 07:12:03;;;;;;;0.40;0.30;;;4.50;99.90;;;;;;4984360;28;20864;-71
2021/11/22 07:14:29;;;;;;;0.40;0.30;;;4.50;99.90;;;;;;4991893;28;20723;-71
2021/11/22 07:16:55;;;;;;;0.40;0.28;;;4.60;99.90;;;;;;4991360;28;20383;-71
2021/11/22 07:19:21;;;;;;;0.40;0.20;;;4.60;99.90;;;;;;4991297;28;20394;-71
2021/11/22 07:21:46;;;;;;;0.40;0.40;;;4.60;99.90;;;;;;4991483;28;20748;-70
2021/11/22 07:24:12;;;;;;;0.70;0.50;;;4.60;99.90;;;;;;4990525;28;20833;-70
2021/11/22 07:26:38;;;;;;;1.10;0.60;;;4.60;99.90;;;;;;4983033;28;20405;-70
2021/11/22 07:29:05;;;;;;;0.80;0.60;;;4.60;99.90;;;;;;4990441;28;20378;-71
2021/11/22 07:31:31;;;;;;;0.40;0.30;;;4.70;99.90;;;;;;4973618;28;20391;-70
2021/11/22 07:33:57;;;;;;;0.40;0.30;;;4.60;99.90;;;;;;4973565;28;20453;-71
2021/11/22 07:36:22;;;;;;;0.90;0.80;;;4.80;99.90;;;;;;4992265;28;20871;-70
2021/11/22 07:38:49;;;;;;;0.40;0.30;;;4.70;99.90;;;;;;4994929;28;20383;-70
2021/11/22 07:41:15;;;;;;;0.40;0.30;;;4.60;99.90;;;;;;4994643;28;20539;-70
2021/11/22 07:43:41;;;;;;;0.70;0.70;;;4.60;99.90;;;;;;4994874;28;20815;-70
2021/11/22 07:46:06;;;;;;;0.40;0.20;;;4.60;99.90;;;;;;4994169;28;20390;-71
2021/11/22 07:48:32;;;;;;;0.40;0.30;;;4.70;99.90;;;;;;4994918;28;20402;-70
2021/11/22 07:50:58;;;;;;;0.40;0.20;;;4.60;99.90;;;;;;4995184;28;20556;-70
2021/11/22 07:53:25;;;;;;;0.50;0.40;;;4.70;99.90;;;;;;4994618;28;20795;-70
2021/11/22 07:55:50;;;;;;;0.40;0.20;;;4.80;99.90;;;;;;4995352;28;20394;-70
2021/11/22 07:58:16;;;;;;;0.80;0.70;;;4.70;99.90;;;;;;4977184;28;20955;-70
2021/11/22 08:00:42;;;;;;;0.40;0.20;;;4.70;99.90;;;;;;4994994;28;20393;-70
2021/11/22 08:03:08;;;;;;;0.40;0.20;;;4.80;99.90;;;;;;4995221;28;20413;-69
2021/11/22 08:05:34;;;;;;;0.40;0.20;;;4.90;99.90;;;;;;4994760;28;20450;-69
2021/11/22 08:08:00;;;;;;;0.40;0.20;;;4.90;99.90;;;;;;4995296;28;20731;-69
2021/11/22 08:10:31;;;;;;;0.40;0.20;;;4.90;99.90;;;;;;4994422;28;20792;-68
2021/11/22 08:13:00;;;;;;;0.40;0.20;;;5.00;99.90;;;;;;4995076;28;20416;-69
2021/11/22 08:15:27;;;;;;;0.40;0.20;;;4.90;99.90;;;;;;4994357;28;20864;-70
2021/11/22 08:17:54;;;;;;;0.50;0.50;;;4.90;99.90;;;;;;4994887;28;20391;-70
2021/11/22 08:20:21;;;;;;;0.40;0.20;;;4.90;99.90;;;;;;4960522;28;20490;-70
2021/11/22 08:22:48;;;;;;;0.40;0.20;;;4.90;99.90;;;;;;4994983;28;20386;-70
2021/11/22 08:25:16;;;;;;;1.50;0.50;;;5.00;99.90;;;;;;4994561;28;20473;-70
2021/11/22 08:27:42;;;;;;;0.70;0.70;;;4.90;99.90;;;;;;4993836;28;20879;-70
2021/11/22 08:30:17;;;;;;;0.60;0.60;;;4.90;99.90;;;;;;4994481;28;20921;-70
2021/11/22 08:32:45;;;;;;;0.50;0.50;;;4.80;99.90;;;;;;4993874;28;20909;-70
2021/11/22 08:35:11;;;;;;;0.50;0.50;;;5.00;99.90;;;;;;4994630;28;20414;-70
2021/11/22 08:37:39;;;;;;;0.40;0.20;;;5.10;99.90;;;;;;4994191;28;20625;-71
2021/11/22 08:40:08;;;;;;;0.40;0.30;;;5.00;99.90;;;;;;4994474;28;20764;-70
2021/11/22 08:42:34;;;;;;;0.40;0.20;;;5.00;99.90;;;;;;4994440;28;20394;-70
2021/11/22 08:45:00;;;;;;;0.40;0.40;;;5.00;99.90;;;;;;4994150;28;20572;-70
2021/11/22 08:47:27;;;;;;;0.40;0.20;;;5.10;99.90;;;;;;4994677;28;20401;-69
2021/11/22 08:49:53;;;;;;;0.40;0.20;;;5.20;99.90;;;;;;4993299;28;20513;-70
2021/11/22 08:52:19;;;;;;;0.40;0.40;;;5.20;99.90;;;;;;4994368;28;20805;-71
2021/11/22 08:54:48;;;;;;;0.40;0.20;;;5.20;99.90;;;;;;4993642;28;20446;-71
2021/11/22 08:57:17;;;;;;;0.40;0.20;;;5.30;99.90;;;;;;4992676;28;20481;-70
2021/11/22 08:59:44;;;;;;;0.80;0.80;;;5.20;99.90;;;;;;4974222;28;20388;-70
2021/11/22 09:02:10;;;;;;;0.40;0.30;;;5.40;99.90;;;;;;4974725;28;20404;-70
2021/11/22 09:04:37;;;;;;;0.40;0.20;;;5.50;99.90;;;;;;4974732;28;20479;-71
2021/11/22 09:07:03;;;;;;;0.80;0.60;;;5.40;99.90;;;;;;4974227;28;20396;-72
2021/11/22 09:09:28;;;;;;;1.00;0.70;;;5.50;99.90;;;;;;4974697;28;20388;-71
2021/11/22 09:11:54;;;;;;;0.40;0.20;;;5.50;99.90;;;;;;4973779;28;20384;-70
2021/11/22 09:14:20;;;;;;;0.70;0.70;;;5.50;99.90;;;;;;4974600;28;20527;-70
2021/11/22 09:16:46;;;;;;;0.40;0.30;;;5.70;99.90;;;;;;4974477;28;20412;-70
2021/11/22 09:19:13;;;;;;;0.40;0.20;;;5.60;99.90;;;;;;4974331;28;20386;-71
2021/11/22 09:21:39;;;;;;;0.40;0.40;;;5.60;99.90;;;;;;4974421;28;20385;-71
2021/11/22 09:24:05;;;;;;;0.43;0.32;;;5.70;99.90;;;;;;4973534;28;20416;-70
2021/11/22 09:26:31;;;;;;;0.40;0.22;;;5.60;99.90;;;;;;4974302;28;20396;-71
2021/11/22 09:28:58;;;;;;;0.40;0.20;;;5.70;99.90;;;;;;4973766;28;20793;-71
2021/11/22 09:31:24;;;;;;;0.40;0.20;;;5.60;99.90;;;;;;4974272;28;20391;-71
2021/11/22 09:33:52;;;;;;;0.50;0.50;;;5.80;99.90;;;;;;4956858;28;20943;-71
2021/11/22 09:36:19;;;;;;;0.40;0.20;;;5.80;99.90;;;;;;4973354;28;20424;-71
2021/11/22 09:38:45;;;;;;;0.40;0.20;;;6.00;99.90;;;;;;4956834;28;20734;-71
2021/11/22 09:41:12;;;;;;;0.40;0.20;;;6.00;99.90;;;;;;4973390;28;20381;-71
2021/11/22 09:43:42;;;;;;;0.40;0.30;;;6.20;99.90;;;;;;4973967;28;20416;-71
2021/11/22 09:46:08;;;;;;;0.40;0.20;;;6.10;99.90;;;;;;4973353;28;20861;-71
2021/11/22 09:48:33;;;;;;;0.40;0.20;;;6.00;99.90;;;;;;4974018;28;20516;-71
2021/11/22 09:50:59;;;;;;;0.40;0.20;;;6.00;99.90;;;;;;4992400;28;20403;-71
2021/11/22 09:53:25;;;;;;;0.50;0.50;;;5.90;99.90;;;;;;4992486;28;20395;-70
2021/11/22 09:55:51;;;;;;;1.10;0.70;;;6.10;99.90;;;;;;4992862;28;20391;-70
2021/11/22 09:58:16;;;;;;;0.40;0.20;;;6.20;99.90;;;;;;4992123;28;20395;-71
2021/11/22 10:00:45;;;;;;;0.40;0.20;;;6.30;99.90;;;;;;4992843;28;20975;-71
2021/11/22 10:03:25;;;;;;;0.40;0.20;;;6.30;99.90;;;;;;4992610;28;20742;-71
2021/11/22 10:05:59;;;;;;;0.40;0.20;;;6.30;99.90;;;;;;4993097;28;20771;-71
2021/11/22 10:08:25;;;;;;;0.40;0.30;;;6.20;99.90;;;;;;4992117;28;20444;-71
2021/11/22 10:10:57;;;;;;;0.40;0.20;;;6.20;99.90;;;;;;4992986;28;20448;-71
2021/11/22 10:13:29;;;;;;;0.40;0.20;;;6.20;99.90;;;;;;4992426;28;20402;-71
2021/11/22 10:15:58;;;;;;;0.40;0.20;;;6.30;99.90;;;;;;4992753;28;20462;-71
2021/11/22 10:18:30;;;;;;;0.40;0.40;;;6.30;99.90;;;;;;4992149;28;20490;-71
2021/11/22 10:21:02;;;;;;;0.40;0.20;;;6.40;99.90;;;;;;4992297;28;20403;-71
2021/11/22 10:23:28;;;;;;;0.40;0.20;;;6.60;99.90;;;;;;4992113;28;20394;-71
2021/11/22 10:25:56;;;;;;;0.40;0.20;;;6.40;99.90;;;;;;4992615;28;20398;-71
2021/11/22 10:28:29;;;;;;;0.40;0.20;;;6.50;99.90;;;;;;4992059;28;20729;-71
2021/11/22 10:31:07;;;;;;;0.40;0.20;;;6.50;99.90;;;;;;4992382;28;20383;-71
2021/11/22 10:33:35;;;;;;;0.40;0.20;;;6.60;99.90;;;;;;4991501;28;20394;-71
2021/11/22 10:36:08;;;;;;;0.40;0.20;;;6.70;99.90;;;;;;4992462;28;20446;-70
2021/11/22 10:38:37;;;;;;;0.40;0.22;;;6.70;99.90;;;;;;4991945;28;20378;-71
2021/11/22 10:41:13;;;;;;;0.40;0.40;;;6.50;99.90;;;;;;4992032;28;20393;-71
2021/11/22 10:43:51;;;;;;;0.40;0.20;;;6.60;99.90;;;;;;4991789;28;20497;-71
2021/11/22 10:46:28;;;;;;;0.40;0.20;;;6.70;99.90;;;;;;4992410;28;20391;-71
2021/11/22 10:49:13;;;;;;;0.40;0.20;;;6.60;99.90;;;;;;4992036;28;20382;-71
2021/11/22 10:51:47;;;;;;;0.40;0.30;;;6.70;99.90;;;;;;4991536;28;20386;-70
2021/11/22 10:54:16;;;;;;;0.50;0.50;;;6.80;99.90;;;;;;4992267;28;20480;-70
2021/11/22 10:56:48;;;;;;;0.40;0.20;;;6.70;99.90;;;;;;4991392;28;20387;-71
2021/11/22 10:59:24;;;;;;;0.40;0.20;;;6.90;99.90;;;;;;5009055;28;20408;-70
2021/11/22 11:01:55;;;;;;;0.40;0.20;;;6.80;99.90;;;;;;4993423;28;20757;-70
2021/11/22 11:04:31;;;;;;;0.40;0.20;;;6.80;99.90;;;;;;5011599;28;20412;-70
2021/11/22 11:07:07;;;;;;;0.40;0.20;;;6.90;99.90;;;;;;5010938;28;20810;-70
2021/11/22 11:09:39;;;;;;;0.40;0.20;;;7.00;99.90;;;;;;5010950;28;20484;-70
2021/11/22 11:12:10;;;;;;;0.40;0.25;;;6.80;99.90;;;;;;5011047;28;20381;-70
2021/11/22 11:14:41;;;;;;;0.50;0.50;;;6.90;99.90;;;;;;5011572;28;20385;-70
2021/11/22 11:17:31;;;;;;;0.40;0.30;;;6.80;99.90;;;;;;5011504;28;20876;-70
2021/11/22 11:20:04;;;;;;;0.40;0.20;;;6.90;99.90;;;;;;5009988;28;20962;-70
2021/11/22 11:22:30;;;;;;;0.40;0.20;;;6.90;99.90;;;;;;5011497;28;20403;-70
2021/11/22 11:25:00;;;;;;;0.40;0.20;;;7.00;99.90;;;;;;5010798;28;20409;-71
2021/11/22 11:27:26;;;;;;;0.40;0.20;;;7.00;99.90;;;;;;5011210;28;20737;-71
2021/11/22 11:29:53;;;;;;;0.40;0.30;;;7.00;99.90;;;;;;5010841;28;20449;-71
2021/11/22 11:32:19;;;;;;;0.40;0.30;;;6.80;99.90;;;;;;5010857;28;20881;-70
2021/11/22 11:34:50;;;;;;;0.40;0.30;;;7.00;99.90;;;;;;5011408;28;20479;-70
2021/11/22 11:37:48;;;;;;;1.50;0.80;;;7.10;99.90;;;;;;5011135;28;20431;-70
2021/11/22 11:40:33;;;;;;;0.40;0.20;;;7.10;99.90;;;;;;5010737;28;20439;-71
2021/11/22 11:43:37;;;;;;;0.40;0.20;;;7.20;99.90;;;;;;5010562;28;20421;-70
2021/11/22 11:46:20;;;;;;;0.40;0.30;;;7.10;99.90;;;;;;4990369;28;20781;-71
2021/11/22 11:49:04;;;;;;;0.40;0.30;;;7.00;99.90;;;;;;5010812;28;20385;-71
2021/11/22 11:51:38;;;;;;;0.40;0.20;;;6.90;99.90;;;;;;5011233;28;20400;-71
2021/11/22 11:54:20;;;;;;;0.40;0.20;;;7.10;99.90;;;;;;5010418;28;20777;-71
2021/11/22 11:56:47;;;;;;;0.70;0.50;;;7.00;99.90;;;;;;5011426;28;20396;-71
2021/11/22 11:59:24;;;;;;;0.40;0.20;;;7.00;99.90;;;;;;5010422;28;20393;-71
2021/11/22 12:02:00;;;;;;;0.40;0.20;;;7.00;99.90;;;;;;4990414;28;20476;-71
2021/11/22 12:04:28;;;;;;;0.40;0.20;;;7.00;99.90;;;;;;4985655;28;20494;-71
2021/11/22 12:06:59;;;;;;;0.40;0.20;;;7.10;99.90;;;;;;4983113;28;20785;-71
2021/11/22 12:09:30;;;;;;;0.40;0.20;;;7.00;99.90;;;;;;4986223;28;20425;-71
2021/11/22 12:12:08;;;;;;;0.50;0.50;;;7.10;99.90;;;;;;4983732;28;20440;-70
2021/11/22 12:14:57;;;;;;;0.50;0.40;;;7.10;99.90;;;;;;4984280;28;20507;-71
2021/11/22 12:17:35;;;;;;;0.40;0.20;;;7.20;99.90;;;;;;4982736;28;20758;-71
2021/11/22 12:20:06;;;;;;;0.40;0.20;;;7.20;99.90;;;;;;4986939;28;20401;-71
2021/11/22 12:22:41;;;;;;;0.40;0.25;;;7.30;99.90;;;;;;4983498;28;20411;-70
2021/11/22 12:25:09;;;;;;;0.40;0.20;;;7.40;99.90;;;;;;4989828;28;20777;-70
2021/11/22 12:27:37;;;;;;;0.40;0.20;;;7.40;99.90;;;;;;4989602;28;20400;-70
2021/11/22 12:30:28;;;;;;;0.40;0.20;;;7.40;99.90;;;;;;4990773;28;20860;-70
2021/11/22 12:33:13;;;;;;;0.40;0.20;;;7.40;99.90;;;;;;4989655;28;20959;-70
2021/11/22 12:35:41;;;;;;;0.40;0.20;;;7.40;99.90;;;;;;4989212;28;20394;-70
2021/11/22 12:38:28;;;;;;;0.40;0.20;;;7.40;99.90;;;;;;4991683;28;20848;-70
2021/11/22 12:40:57;;;;;;;0.40;0.30;;;7.40;99.90;;;;;;4995673;28;20485;-69
2021/11/22 12:43:41;;;;;;;0.40;0.20;;;7.30;99.90;;;;;;5007440;28;20393;-70
2021/11/22 12:46:11;;;;;;;0.40;0.30;;;7.30;99.90;;;;;;5005855;28;20400;-69
2021/11/22 12:48:43;;;;;;;0.40;0.20;;;7.20;99.90;;;;;;4997135;28;20382;-69
2021/11/22 12:51:20;;;;;;;0.40;0.30;;;7.30;99.90;;;;;;4963256;28;20438;-69
2021/11/22 12:54:05;;;;;;;0.40;0.20;;;7.30;99.90;;;;;;4984603;28;20404;-69
2021/11/22 12:56:37;;;;;;;0.40;0.30;;;7.30;99.90;;;;;;4988735;28;20909;-69
2021/11/22 12:59:05;;;;;;;0.40;0.20;;;7.40;99.90;;;;;;4977573;28;20403;-70
2021/11/22 13:01:31;;;;;;;0.40;0.20;;;7.40;99.90;;;;;;4975920;28;20779;-69
2021/11/22 13:03:57;;;;;;;0.40;0.20;;;7.20;99.90;;;;;;4982949;28;20420;-70